Time;durP1;ratioP1;P1;durP2;ratioP2;P2;SDS_P1;SDS_P2;PMS_P1;PMS_P2;Temp;Humidity;BMP_temperature;BMP_pressure;BME280_temperature;BME280_humidity;BME280_pressure;Samples;Min_cycle;Max_cycle;Signal;HPM_P1;HPM_P2
2023/05/09 00:00:44;;;;;;;5.95;2.17;;;;;;;;;;5053491;28;20063;-71
2023/05/09 00:03:11;;;;;;;4.43;1.70;;;;;;;;;;5053040;28;20029;-71
2023/05/09 00:05:38;;;;;;;5.05;1.88;;;;;;;;;;5053404;28;20033;-71
2023/05/09 00:08:04;;;;;;;2.63;1.80;;;;;;;;;;5053059;28;20025;-71
2023/05/09 00:10:31;;;;;;;2.60;1.55;;;;;;;;;;5053589;28;20021;-71
2023/05/09 00:12:58;;;;;;;4.22;1.90;;;;;;;;;;5053233;28;20371;-71
2023/05/09 00:15:24;;;;;;;4.05;1.75;;;;;;;;;;5052929;28;20027;-71
2023/05/09 00:17:51;;;;;;;3.33;1.90;;;;;;;;;;5052985;28;20037;-71
2023/05/09 00:20:18;;;;;;;4.13;2.10;;;;;;;;;;5052935;28;20031;-71
2023/05/09 00:22:44;;;;;;;3.72;2.17;;;;;;;;;;5052936;28;20389;-71
2023/05/09 00:25:11;;;;;;;2.53;2.00;;;;;;;;;;5053235;28;20024;-71
2023/05/09 00:27:38;;;;;;;2.70;1.73;;;;;;;;;;5053072;28;20021;-72
2023/05/09 00:30:06;;;;;;;2.70;1.77;;;;;;;;;;5052699;28;20551;-71
2023/05/09 00:32:33;;;;;;;2.20;1.67;;;;;;;;;;5052849;28;20025;-71
2023/05/09 00:34:59;;;;;;;3.10;1.70;;;;;;;;;;5053116;28;20036;-71
2023/05/09 00:37:25;;;;;;;3.50;1.73;;;;;;;;;;5052927;28;20021;-71
2023/05/09 00:39:52;;;;;;;3.72;1.77;;;;;;;;;;5051485;28;20029;-71
2023/05/09 00:42:18;;;;;;;5.82;1.90;;;;;;;;;;5052544;28;20020;-72
2023/05/09 00:44:44;;;;;;;3.58;1.88;;;;;;;;;;5052728;28;20029;-71
2023/05/09 00:47:11;;;;;;;3.63;2.25;;;;;;;;;;5052319;28;20024;-71
2023/05/09 00:49:37;;;;;;;3.53;1.90;;;;;;;;;;5052579;28;20512;-71
2023/05/09 00:52:04;;;;;;;3.67;1.90;;;;;;;;;;5052706;28;20029;-71
2023/05/09 00:54:30;;;;;;;2.70;1.75;;;;;;;;;;5052612;28;20017;-71
2023/05/09 00:56:57;;;;;;;5.80;1.65;;;;;;;;;;5052514;28;20025;-71
2023/05/09 00:59:23;;;;;;;6.90;2.00;;;;;;;;;;5052581;28;20021;-71
2023/05/09 01:01:50;;;;;;;4.43;1.90;;;;;;;;;;5052284;28;20031;-71
2023/05/09 01:04:16;;;;;;;2.42;1.73;;;;;;;;;;5052179;28;20039;-71
2023/05/09 01:06:43;;;;;;;2.55;1.75;;;;;;;;;;5052502;28;20017;-71
2023/05/09 01:09:30;;;;;;;5.80;1.80;;;;;;;;;;5052272;28;20025;-71
2023/05/09 01:12:12;;;;;;;4.40;1.88;;;;;;;;;;5052399;28;20032;-71
2023/05/09 01:14:44;;;;;;;3.33;1.60;;;;;;;;;;5052162;28;20511;-71
2023/05/09 01:17:24;;;;;;;4.20;1.60;;;;;;;;;;5052546;28;20361;-71
2023/05/09 01:20:20;;;;;;;2.87;1.53;;;;;;;;;;5052433;28;20025;-71
2023/05/09 01:22:49;;;;;;;5.07;1.98;;;;;;;;;;5047606;28;20049;-71
2023/05/09 01:25:27;;;;;;;4.15;1.90;;;;;;;;;;5052333;28;20027;-72
2023/05/09 01:28:02;;;;;;;4.22;2.20;;;;;;;;;;5055666;28;20035;-71
2023/05/09 01:30:29;;;;;;;5.20;2.08;;;;;;;;;;5055913;28;20042;-71
2023/05/09 01:32:59;;;;;;;2.88;1.90;;;;;;;;;;5056554;28;20031;-71
2023/05/09 01:35:26;;;;;;;3.33;1.90;;;;;;;;;;5056370;28;20029;-71
2023/05/09 01:37:54;;;;;;;6.93;2.00;;;;;;;;;;5056276;28;20074;-71
2023/05/09 01:40:21;;;;;;;6.38;1.90;;;;;;;;;;5056168;28;20027;-71
2023/05/09 01:42:57;;;;;;;5.47;1.85;;;;;;;;;;5056149;28;20036;-71
2023/05/09 01:45:25;;;;;;;2.97;2.10;;;;;;;;;;5055840;28;20017;-71
2023/05/09 01:47:53;;;;;;;6.93;2.35;;;;;;;;;;5056304;28;20021;-71
2023/05/09 01:50:19;;;;;;;7.43;2.40;;;;;;;;;;5056122;28;20058;-71
2023/05/09 01:52:50;;;;;;;6.90;3.08;;;;;;;;;;5056107;28;20031;-71
2023/05/09 01:55:17;;;;;;;5.18;2.60;;;;;;;;;;5055782;28;20504;-71
2023/05/09 01:57:44;;;;;;;5.35;2.50;;;;;;;;;;5055720;28;20021;-71
2023/05/09 02:00:12;;;;;;;7.43;2.47;;;;;;;;;;5055351;28;20037;-71
2023/05/09 02:02:39;;;;;;;6.88;2.30;;;;;;;;;;5055824;28;20040;-71
2023/05/09 02:05:06;;;;;;;4.30;2.20;;;;;;;;;;5056081;28;20046;-71
2023/05/09 02:07:33;;;;;;;4.40;2.00;;;;;;;;;;5055747;28;20021;-71
2023/05/09 02:10:00;;;;;;;2.95;1.95;;;;;;;;;;5055714;28;20496;-71
2023/05/09 02:12:26;;;;;;;4.88;2.40;;;;;;;;;;5055641;28;20355;-71
2023/05/09 02:14:52;;;;;;;4.88;2.17;;;;;;;;;;5055210;28;20029;-71
2023/05/09 02:17:20;;;;;;;5.40;2.42;;;;;;;;;;5055294;28;20028;-72
2023/05/09 02:19:46;;;;;;;3.25;1.90;;;;;;;;;;5055721;28;20025;-71
2023/05/09 02:22:13;;;;;;;7.28;2.20;;;;;;;;;;5055113;28;20029;-71
2023/05/09 02:24:40;;;;;;;3.63;2.05;;;;;;;;;;5055355;28;20021;-71
2023/05/09 02:27:06;;;;;;;3.72;1.90;;;;;;;;;;5055366;28;20025;-71
2023/05/09 02:29:39;;;;;;;3.97;1.90;;;;;;;;;;5055079;28;20025;-71
2023/05/09 02:32:10;;;;;;;5.97;2.10;;;;;;;;;;5055396;28;20025;-71
2023/05/09 02:34:37;;;;;;;5.47;2.15;;;;;;;;;;5055314;28;20025;-71
2023/05/09 02:37:04;;;;;;;3.95;2.22;;;;;;;;;;5055190;28;20040;-71
2023/05/09 02:39:30;;;;;;;3.97;1.98;;;;;;;;;;5054854;28;20029;-71
2023/05/09 02:41:57;;;;;;;4.90;1.90;;;;;;;;;;5054790;28;20035;-72
2023/05/09 02:44:23;;;;;;;2.60;1.90;;;;;;;;;;5054939;28;20025;-71
2023/05/09 02:46:49;;;;;;;4.43;2.22;;;;;;;;;;5054946;28;20506;-71
2023/05/09 02:49:16;;;;;;;4.53;2.00;;;;;;;;;;5054698;28;20025;-71
2023/05/09 02:51:42;;;;;;;4.63;1.92;;;;;;;;;;5053869;28;20036;-71
2023/05/09 02:54:08;;;;;;;4.32;1.80;;;;;;;;;;5054854;28;20021;-71
2023/05/09 02:56:34;;;;;;;5.63;2.00;;;;;;;;;;5053430;28;20086;-71
2023/05/09 02:59:01;;;;;;;3.33;2.00;;;;;;;;;;5054575;28;20396;-71
2023/05/09 03:01:27;;;;;;;4.95;1.95;;;;;;;;;;5054500;28;20033;-71
2023/05/09 03:03:53;;;;;;;5.55;2.33;;;;;;;;;;5054417;28;20037;-71
2023/05/09 03:06:20;;;;;;;5.07;1.88;;;;;;;;;;5054461;28;20020;-71
2023/05/09 03:08:46;;;;;;;6.68;2.20;;;;;;;;;;5054354;28;20391;-71
2023/05/09 03:11:12;;;;;;;3.20;2.17;;;;;;;;;;5054514;28;20025;-71
2023/05/09 03:13:39;;;;;;;6.03;2.40;;;;;;;;;;5054610;28;20039;-71
2023/05/09 03:16:05;;;;;;;5.50;2.08;;;;;;;;;;5054398;28;20389;-71
2023/05/09 03:18:31;;;;;;;5.18;1.80;;;;;;;;;;5054353;28;20029;-71
2023/05/09 03:20:58;;;;;;;4.07;2.05;;;;;;;;;;5054199;28;20432;-72
2023/05/09 03:23:24;;;;;;;3.85;2.42;;;;;;;;;;5053296;28;20041;-70
2023/05/09 03:25:50;;;;;;;2.72;1.90;;;;;;;;;;5054058;28;20025;-70
2023/05/09 03:28:17;;;;;;;3.38;2.00;;;;;;;;;;5054138;28;20025;-70
2023/05/09 03:30:43;;;;;;;5.32;2.13;;;;;;;;;;5054046;28;20056;-70
2023/05/09 03:33:09;;;;;;;3.10;2.03;;;;;;;;;;5054167;28;20051;-71
2023/05/09 03:35:36;;;;;;;5.05;2.13;;;;;;;;;;5053838;28;20024;-71
2023/05/09 03:38:02;;;;;;;3.58;2.17;;;;;;;;;;5053890;28;20082;-71
2023/05/09 03:40:28;;;;;;;3.65;2.00;;;;;;;;;;5053910;28;20021;-70
2023/05/09 03:42:55;;;;;;;5.13;2.22;;;;;;;;;;5053503;28;20047;-71
2023/05/09 03:45:21;;;;;;;3.72;1.92;;;;;;;;;;5052487;28;20029;-70
2023/05/09 03:47:47;;;;;;;3.72;1.85;;;;;;;;;;5053748;28;20377;-71
2023/05/09 03:50:14;;;;;;;6.03;2.25;;;;;;;;;;5053258;28;20024;-72
2023/05/09 03:52:40;;;;;;;3.47;2.10;;;;;;;;;;5053539;28;20035;-71
2023/05/09 03:55:07;;;;;;;7.60;2.20;;;;;;;;;;5053645;28;20032;-71
2023/05/09 03:57:34;;;;;;;4.35;2.40;;;;;;;;;;5053479;28;20051;-71
2023/05/09 04:00:02;;;;;;;7.82;2.90;;;;;;;;;;5053703;28;20027;-71
2023/05/09 04:02:28;;;;;;;6.35;2.20;;;;;;;;;;5053276;28;20059;-71
2023/05/09 04:04:54;;;;;;;4.63;2.42;;;;;;;;;;5052214;28;20389;-71
2023/05/09 04:07:21;;;;;;;4.45;2.40;;;;;;;;;;5053157;28;20397;-71
2023/05/09 04:09:48;;;;;;;7.45;2.95;;;;;;;;;;5053165;28;20021;-72
2023/05/09 04:12:14;;;;;;;4.63;2.00;;;;;;;;;;5053022;28;20025;-71
2023/05/09 04:14:42;;;;;;;3.33;1.90;;;;;;;;;;5053536;28;20029;-71
2023/05/09 04:17:08;;;;;;;4.50;2.20;;;;;;;;;;5053238;28;20017;-71
2023/05/09 04:19:34;;;;;;;4.50;2.08;;;;;;;;;;5052081;28;20029;-72
2023/05/09 04:22:00;;;;;;;5.07;1.90;;;;;;;;;;5053231;28;20025;-72
2023/05/09 04:24:27;;;;;;;3.53;2.28;;;;;;;;;;5053142;28;20020;-71
2023/05/09 04:26:53;;;;;;;5.45;2.10;;;;;;;;;;5052915;28;20060;-71
2023/05/09 04:29:19;;;;;;;4.38;2.28;;;;;;;;;;5052809;28;20029;-71
2023/05/09 04:31:46;;;;;;;5.07;2.22;;;;;;;;;;5052793;28;20049;-71
2023/05/09 04:34:12;;;;;;;4.55;2.22;;;;;;;;;;5052703;28;20475;-71
2023/05/09 04:36:38;;;;;;;4.93;2.00;;;;;;;;;;5053187;28;20022;-71
2023/05/09 04:39:05;;;;;;;4.45;2.08;;;;;;;;;;5052517;28;20496;-71
2023/05/09 04:41:31;;;;;;;6.07;2.45;;;;;;;;;;5053117;28;20017;-71
2023/05/09 04:43:57;;;;;;;10.35;2.40;;;;;;;;;;5052679;28;20029;-71
2023/05/09 04:46:24;;;;;;;4.45;2.42;;;;;;;;;;5052758;28;20485;-71
2023/05/09 04:48:50;;;;;;;4.03;2.75;;;;;;;;;;5052764;28;20021;-71
2023/05/09 04:51:17;;;;;;;5.25;2.67;;;;;;;;;;5051180;28;20036;-71
2023/05/09 04:53:44;;;;;;;4.35;2.70;;;;;;;;;;5052802;28;20028;-71
2023/05/09 04:56:10;;;;;;;3.95;2.50;;;;;;;;;;5052421;28;20428;-71
2023/05/09 04:58:40;;;;;;;5.85;2.75;;;;;;;;;;5052761;28;20029;-71
2023/05/09 05:01:06;;;;;;;3.90;2.42;;;;;;;;;;5051475;28;20018;-71
2023/05/09 05:03:32;;;;;;;4.85;2.25;;;;;;;;;;5052467;28;20044;-71
2023/05/09 05:05:59;;;;;;;4.80;2.88;;;;;;;;;;5052852;28;20013;-72
2023/05/09 05:08:25;;;;;;;4.72;2.97;;;;;;;;;;5052090;28;20051;-71
2023/05/09 05:10:51;;;;;;;6.55;2.63;;;;;;;;;;5052418;28;20024;-71
2023/05/09 05:13:18;;;;;;;8.75;2.95;;;;;;;;;;5052469;28;20102;-72
2023/05/09 05:15:44;;;;;;;4.55;2.30;;;;;;;;;;5052654;28;20035;-71
2023/05/09 05:18:10;;;;;;;7.00;2.70;;;;;;;;;;5051370;28;20478;-71
2023/05/09 05:20:39;;;;;;;4.22;2.50;;;;;;;;;;5052249;28;20025;-72
2023/05/09 05:23:05;;;;;;;5.03;2.53;;;;;;;;;;5052194;28;20037;-71
2023/05/09 05:25:32;;;;;;;3.92;2.55;;;;;;;;;;5052355;28;20432;-71
2023/05/09 05:27:58;;;;;;;5.47;2.42;;;;;;;;;;5052125;28;20078;-71
2023/05/09 05:30:24;;;;;;;3.78;2.88;;;;;;;;;;5052085;28;20092;-71
2023/05/09 05:32:51;;;;;;;3.92;2.35;;;;;;;;;;5052098;28;20032;-71
2023/05/09 05:35:18;;;;;;;3.30;2.33;;;;;;;;;;5052085;28;20047;-71
2023/05/09 05:37:44;;;;;;;7.22;3.10;;;;;;;;;;5051985;28;20024;-71
2023/05/09 05:40:11;;;;;;;5.18;2.60;;;;;;;;;;5051889;28;20428;-71
2023/05/09 05:42:37;;;;;;;6.60;2.50;;;;;;;;;;5052204;28;20078;-71
2023/05/09 05:45:03;;;;;;;4.82;2.90;;;;;;;;;;5052246;28;20021;-71
2023/05/09 05:47:33;;;;;;;3.83;2.60;;;;;;;;;;5051934;28;20031;-71
2023/05/09 05:50:00;;;;;;;3.80;2.73;;;;;;;;;;5051994;28;20024;-71
2023/05/09 05:52:26;;;;;;;6.18;3.25;;;;;;;;;;5051605;28;20025;-71
2023/05/09 05:54:53;;;;;;;4.47;2.92;;;;;;;;;;5051848;28;20029;-71
2023/05/09 05:57:19;;;;;;;6.28;3.05;;;;;;;;;;5052172;28;20032;-71
2023/05/09 05:59:49;;;;;;;6.20;3.00;;;;;;;;;;5052020;28;20029;-72
2023/05/09 06:02:16;;;;;;;4.53;2.65;;;;;;;;;;5051953;28;20047;-71
2023/05/09 06:04:42;;;;;;;7.13;2.90;;;;;;;;;;5051667;28;20021;-71
2023/05/09 06:07:09;;;;;;;5.15;2.95;;;;;;;;;;5050506;28;20036;-72
2023/05/09 06:09:36;;;;;;;5.25;2.80;;;;;;;;;;5051828;28;20027;-72
2023/05/09 06:12:02;;;;;;;7.20;2.92;;;;;;;;;;5052380;28;20029;-71
2023/05/09 06:14:28;;;;;;;4.18;2.90;;;;;;;;;;5050988;28;20028;-71
2023/05/09 06:16:55;;;;;;;5.38;2.80;;;;;;;;;;5054806;28;20032;-72
2023/05/09 06:19:21;;;;;;;5.47;2.65;;;;;;;;;;5054342;28;20486;-71
2023/05/09 06:21:47;;;;;;;7.88;2.50;;;;;;;;;;5055068;28;20033;-71
2023/05/09 06:24:14;;;;;;;5.28;2.50;;;;;;;;;;5054561;28;20158;-71
2023/05/09 06:26:40;;;;;;;8.18;2.72;;;;;;;;;;5054730;28;20062;-72
2023/05/09 06:29:07;;;;;;;6.03;2.40;;;;;;;;;;5054253;28;20492;-71
2023/05/09 06:31:37;;;;;;;5.78;2.78;;;;;;;;;;5054269;28;20455;-72
2023/05/09 06:34:04;;;;;;;6.20;2.45;;;;;;;;;;5054443;28;20029;-72
2023/05/09 06:36:31;;;;;;;7.18;2.40;;;;;;;;;;5055218;28;20032;-72
2023/05/09 06:38:57;;;;;;;5.22;2.33;;;;;;;;;;5054482;28;20031;-71
2023/05/09 06:41:24;;;;;;;8.88;2.78;;;;;;;;;;5054181;28;20017;-72
2023/05/09 06:43:51;;;;;;;6.90;2.40;;;;;;;;;;5051606;28;20405;-72
2023/05/09 06:46:18;;;;;;;5.28;1.98;;;;;;;;;;5053609;28;20040;-72
2023/05/09 06:48:44;;;;;;;3.22;2.25;;;;;;;;;;5052608;28;20040;-70
2023/05/09 06:51:10;;;;;;;8.30;2.22;;;;;;;;;;5051277;28;20037;-72
2023/05/09 06:53:37;;;;;;;6.75;2.63;;;;;;;;;;5053695;28;20028;-72
2023/05/09 06:56:03;;;;;;;5.82;1.90;;;;;;;;;;5053357;28;20451;-71
2023/05/09 06:58:30;;;;;;;5.65;2.15;;;;;;;;;;5052626;28;20525;-72
2023/05/09 07:00:56;;;;;;;5.05;2.15;;;;;;;;;;5053758;28;20492;-72
2023/05/09 07:03:23;;;;;;;5.15;2.20;;;;;;;;;;5052749;28;20040;-70
2023/05/09 07:05:50;;;;;;;4.97;1.88;;;;;;;;;;5053968;28;20028;-71
2023/05/09 07:08:17;;;;;;;8.07;2.03;;;;;;;;;;5053253;28;20037;-72
2023/05/09 07:10:43;;;;;;;4.28;1.95;;;;;;;;;;5053434;28;20401;-72
2023/05/09 07:13:10;;;;;;;5.13;1.80;;;;;;;;;;5053755;28;20033;-72
2023/05/09 07:15:36;;;;;;;6.13;1.98;;;;;;;;;;5052517;28;20033;-72
2023/05/09 07:18:03;;;;;;;4.68;1.90;;;;;;;;;;5053147;28;20106;-71
2023/05/09 07:20:29;;;;;;;2.20;1.77;;;;;;;;;;5053318;28;20409;-72
2023/05/09 07:22:57;;;;;;;5.72;2.40;;;;;;;;;;5053195;28;20025;-71
2023/05/09 07:25:23;;;;;;;4.70;2.53;;;;;;;;;;5052318;28;20024;-72
2023/05/09 07:27:49;;;;;;;5.68;2.30;;;;;;;;;;5053334;28;20028;-72
2023/05/09 07:30:16;;;;;;;10.35;2.20;;;;;;;;;;5053267;28;20053;-72
2023/05/09 07:32:42;;;;;;;3.40;1.90;;;;;;;;;;5052943;28;20023;-72
2023/05/09 07:35:08;;;;;;;4.70;1.95;;;;;;;;;;5051732;28;20032;-72
2023/05/09 07:37:35;;;;;;;4.68;2.10;;;;;;;;;;5052604;28;20024;-71
2023/05/09 07:40:02;;;;;;;4.55;2.08;;;;;;;;;;5053374;28;20371;-70
2023/05/09 07:42:29;;;;;;;10.15;2.13;;;;;;;;;;5051031;28;20021;-71
2023/05/09 07:44:55;;;;;;;3.35;1.67;;;;;;;;;;5052559;28;20025;-72
2023/05/09 07:47:22;;;;;;;8.43;2.60;;;;;;;;;;5050358;28;20078;-72
2023/05/09 07:49:48;;;;;;;6.35;2.08;;;;;;;;;;5053165;28;20029;-71
2023/05/09 07:52:16;;;;;;;4.00;2.00;;;;;;;;;;5051971;28;20017;-71
2023/05/09 07:54:43;;;;;;;3.50;2.00;;;;;;;;;;5052327;28;20028;-72
2023/05/09 07:57:09;;;;;;;3.88;2.13;;;;;;;;;;5052326;28;20489;-72
2023/05/09 07:59:36;;;;;;;4.47;1.80;;;;;;;;;;5046633;28;20035;-72
2023/05/09 08:02:02;;;;;;;6.22;2.30;;;;;;;;;;5047957;28;20021;-71
2023/05/09 08:04:28;;;;;;;8.38;2.30;;;;;;;;;;5053121;28;20058;-72
2023/05/09 08:06:55;;;;;;;3.47;2.10;;;;;;;;;;5050745;28;20029;-71
2023/05/09 08:09:21;;;;;;;7.15;2.60;;;;;;;;;;5051675;28;20031;-71
2023/05/09 08:11:47;;;;;;;2.95;2.10;;;;;;;;;;5050884;28;20508;-71
2023/05/09 08:14:14;;;;;;;4.60;2.03;;;;;;;;;;5051658;28;20025;-71
2023/05/09 08:16:42;;;;;;;5.30;2.35;;;;;;;;;;5050956;28;20424;-71
2023/05/09 08:19:08;;;;;;;6.28;2.70;;;;;;;;;;5050470;28;20036;-71
2023/05/09 08:21:34;;;;;;;4.72;2.30;;;;;;;;;;5051456;28;20021;-72
2023/05/09 08:24:01;;;;;;;4.35;2.25;;;;;;;;;;5051324;28;20032;-71
2023/05/09 08:26:27;;;;;;;4.18;2.28;;;;;;;;;;5051674;28;20028;-72
2023/05/09 08:28:53;;;;;;;5.70;2.10;;;;;;;;;;5051529;28;20017;-72
2023/05/09 08:31:20;;;;;;;3.80;2.08;;;;;;;;;;5050842;28;20387;-72
2023/05/09 08:33:46;;;;;;;4.30;1.80;;;;;;;;;;5050344;28;20040;-71
2023/05/09 08:36:13;;;;;;;2.55;1.67;;;;;;;;;;5051207;28;20490;-72
2023/05/09 08:38:39;;;;;;;4.95;1.88;;;;;;;;;;5051970;28;20047;-72
2023/05/09 08:41:05;;;;;;;3.25;1.88;;;;;;;;;;5051796;28;20021;-72
2023/05/09 08:43:34;;;;;;;4.15;2.20;;;;;;;;;;5051296;28;20066;-72
2023/05/09 08:46:02;;;;;;;5.22;1.77;;;;;;;;;;5049594;28;20036;-72
2023/05/09 08:48:30;;;;;;;3.15;1.75;;;;;;;;;;5051056;28;20405;-71
2023/05/09 08:50:56;;;;;;;2.65;1.88;;;;;;;;;;5051413;28;20090;-71
2023/05/09 08:53:22;;;;;;;2.88;1.58;;;;;;;;;;5050082;28;20047;-72
2023/05/09 08:55:52;;;;;;;3.83;1.60;;;;;;;;;;5051013;28;20043;-71
2023/05/09 08:58:19;;;;;;;2.95;1.40;;;;;;;;;;5050989;28;20043;-73
2023/05/09 09:00:45;;;;;;;8.45;1.98;;;;;;;;;;5051005;28;20017;-72
2023/05/09 09:03:12;;;;;;;3.90;1.67;;;;;;;;;;5050876;28;20025;-70
2023/05/09 09:05:40;;;;;;;3.25;1.77;;;;;;;;;;5051170;28;20036;-72
2023/05/09 09:08:07;;;;;;;5.20;1.63;;;;;;;;;;5049645;28;20559;-71
2023/05/09 09:10:34;;;;;;;3.38;1.90;;;;;;;;;;5049062;28;20019;-72
2023/05/09 09:13:03;;;;;;;4.20;1.50;;;;;;;;;;5049947;28;20017;-72
2023/05/09 09:15:33;;;;;;;5.60;1.58;;;;;;;;;;5049868;28;20520;-72
2023/05/09 09:18:03;;;;;;;4.63;1.70;;;;;;;;;;5050976;28;20029;-72
2023/05/09 09:20:31;;;;;;;3.40;1.63;;;;;;;;;;5050918;28;20031;-72
2023/05/09 09:23:02;;;;;;;7.93;1.80;;;;;;;;;;5049838;28;20035;-72
2023/05/09 09:25:28;;;;;;;3.92;1.50;;;;;;;;;;5048652;28;20039;-72
2023/05/09 09:27:54;;;;;;;4.25;1.70;;;;;;;;;;5049461;28;20079;-72
2023/05/09 09:30:23;;;;;;;5.47;1.92;;;;;;;;;;5049104;28;20063;-72
2023/05/09 09:32:50;;;;;;;5.95;1.50;;;;;;;;;;5050423;28;20037;-72
2023/05/09 09:35:16;;;;;;;3.65;1.52;;;;;;;;;;5049773;28;20039;-72
2023/05/09 09:37:42;;;;;;;6.35;1.60;;;;;;;;;;5049197;28;20025;-72
2023/05/09 09:40:10;;;;;;;6.28;1.40;;;;;;;;;;5050365;28;20043;-72
2023/05/09 09:42:41;;;;;;;5.72;1.83;;;;;;;;;;5050033;28;20048;-73
2023/05/09 09:45:12;;;;;;;2.97;1.70;;;;;;;;;;5049728;28;20032;-72
2023/05/09 09:47:38;;;;;;;;;;;;;;;;;;5052026;28;20031;-72
2023/05/09 09:50:14;;;;;;;3.58;1.27;;;;;;;;;;5053809;28;19991;-72
2023/05/09 09:52:51;;;;;;;6.38;1.70;;;;;;;;;;5034093;28;20040;-72
2023/05/09 09:55:18;;;;;;;4.00;1.83;;;;;;;;;;5042272;28;20033;-72
2023/05/09 09:57:45;;;;;;;2.30;1.50;;;;;;;;;;5053632;28;20688;-72
2023/05/09 10:00:12;;;;;;;3.70;1.42;;;;;;;;;;5053866;28;20021;-72
2023/05/09 10:02:54;;;;;;;2.72;1.60;;;;;;;;;;5054274;28;20039;-72
2023/05/09 10:05:30;;;;;;;3.97;1.50;;;;;;;;;;5053331;28;20021;-72
2023/05/09 10:07:58;;;;;;;6.93;1.77;;;;;;;;;;5053962;28;20025;-71
2023/05/09 10:10:31;;;;;;;3.40;1.48;;;;;;;;;;5054101;28;20025;-72
2023/05/09 10:13:06;;;;;;;4.75;1.65;;;;;;;;;;5053086;28;20029;-72
2023/05/09 10:15:34;;;;;;;4.40;1.40;;;;;;;;;;5053940;28;20550;-72
2023/05/09 10:18:03;;;;;;;3.47;1.58;;;;;;;;;;5053777;28;20023;-72
2023/05/09 10:20:30;;;;;;;2.85;1.30;;;;;;;;;;5051868;28;20024;-72
2023/05/09 10:23:03;;;;;;;5.07;1.52;;;;;;;;;;5053536;28;20039;-72
2023/05/09 10:25:32;;;;;;;3.53;1.77;;;;;;;;;;5052773;28;20378;-72
2023/05/09 10:28:00;;;;;;;3.40;1.40;;;;;;;;;;5036108;28;20085;-72
2023/05/09 10:30:32;;;;;;;2.90;1.35;;;;;;;;;;5053655;28;20528;-72
2023/05/09 10:33:08;;;;;;;4.72;1.60;;;;;;;;;;5053241;28;20024;-72
2023/05/09 10:35:40;;;;;;;3.83;1.20;;;;;;;;;;5053404;28;20024;-73
2023/05/09 10:38:06;;;;;;;4.25;1.52;;;;;;;;;;5052864;28;20028;-72
2023/05/09 10:40:33;;;;;;;5.13;1.38;;;;;;;;;;5053360;28;20040;-73
2023/05/09 10:43:00;;;;;;;9.05;1.50;;;;;;;;;;5035347;28;20394;-72
2023/05/09 10:45:26;;;;;;;2.60;1.30;;;;;;;;;;5052988;28;20039;-72
2023/05/09 10:47:55;;;;;;;3.15;1.48;;;;;;;;;;5053616;28;20028;-73
2023/05/09 10:50:21;;;;;;;5.05;1.23;;;;;;;;;;5053818;28;20025;-72
2023/05/09 10:53:03;;;;;;;3.30;1.45;;;;;;;;;;5053078;28;20051;-72
2023/05/09 10:55:57;;;;;;;5.13;1.58;;;;;;;;;;5053705;28;20051;-73
2023/05/09 10:58:25;;;;;;;3.25;1.30;;;;;;;;;;5051804;28;20413;-72
2023/05/09 11:00:52;;;;;;;5.00;1.70;;;;;;;;;;5050927;28;20142;-72
2023/05/09 11:03:19;;;;;;;4.20;1.35;;;;;;;;;;5052528;28;20037;-73
2023/05/09 11:05:46;;;;;;;3.65;1.35;;;;;;;;;;5053046;28;20025;-72
2023/05/09 11:08:24;;;;;;;3.13;1.38;;;;;;;;;;5052948;28;20024;-72
2023/05/09 11:10:52;;;;;;;5.20;1.58;;;;;;;;;;5053237;28;20034;-72
2023/05/09 11:13:26;;;;;;;5.85;1.85;;;;;;;;;;5052877;28;20035;-72
2023/05/09 11:15:55;;;;;;;4.40;1.40;;;;;;;;;;5052931;28;20025;-73
2023/05/09 11:18:21;;;;;;;5.00;1.90;;;;;;;;;;5053089;28;20021;-73
2023/05/09 11:20:48;;;;;;;5.63;1.80;;;;;;;;;;5052736;28;20474;-73
2023/05/09 11:23:18;;;;;;;5.47;1.60;;;;;;;;;;5052690;28;20074;-73
2023/05/09 11:25:46;;;;;;;5.90;1.67;;;;;;;;;;5052622;28;20025;-73
2023/05/09 11:28:26;;;;;;;6.88;1.50;;;;;;;;;;5053157;28;20035;-72
2023/05/09 11:30:53;;;;;;;3.33;1.52;;;;;;;;;;5052815;28;20045;-73
2023/05/09 11:33:24;;;;;;;6.40;1.73;;;;;;;;;;5053040;28;20037;-72
2023/05/09 11:36:09;;;;;;;2.72;1.45;;;;;;;;;;5052333;28;20029;-72
2023/05/09 11:38:41;;;;;;;6.95;1.92;;;;;;;;;;5051451;28;20025;-73
2023/05/09 11:41:08;;;;;;;6.65;1.42;;;;;;;;;;5051813;28;20443;-73
2023/05/09 11:43:36;;;;;;;7.13;1.65;;;;;;;;;;5052431;28;20059;-72
2023/05/09 11:46:03;;;;;;;3.22;1.30;;;;;;;;;;5052677;28;20021;-73
2023/05/09 11:48:29;;;;;;;5.40;1.83;;;;;;;;;;5052566;28;20029;-73
2023/05/09 11:50:55;;;;;;;3.75;1.48;;;;;;;;;;5052244;28;20082;-72
2023/05/09 11:53:22;;;;;;;14.25;1.90;;;;;;;;;;5043071;28;20035;-73
2023/05/09 11:55:48;;;;;;;6.07;1.83;;;;;;;;;;5042497;28;20025;-73
2023/05/09 11:58:15;;;;;;;7.07;2.22;;;;;;;;;;5040764;28;20461;-71
2023/05/09 12:00:44;;;;;;;6.18;1.80;;;;;;;;;;5051500;28;20024;-72
2023/05/09 12:03:11;;;;;;;6.47;1.98;;;;;;;;;;5049972;28;20044;-70
2023/05/09 12:05:41;;;;;;;8.23;2.33;;;;;;;;;;5032388;28;20021;-72
2023/05/09 12:08:11;;;;;;;9.27;2.57;;;;;;;;;;5030601;28;20037;-71
2023/05/09 12:10:38;;;;;;;9.75;2.65;;;;;;;;;;5030637;28;20269;-72
2023/05/09 12:13:04;;;;;;;6.65;2.90;;;;;;;;;;5031335;28;20025;-71
2023/05/09 12:15:36;;;;;;;10.77;2.92;;;;;;;;;;5030737;28;20029;-71
2023/05/09 12:18:04;;;;;;;6.47;2.85;;;;;;;;;;5030548;28;20440;-71
2023/05/09 12:20:43;;;;;;;7.53;2.95;;;;;;;;;;5040209;28;20035;-71
2023/05/09 12:23:11;;;;;;;6.65;3.00;;;;;;;;;;5050015;28;20048;-71
2023/05/09 12:25:37;;;;;;;8.18;2.88;;;;;;;;;;5051446;28;20025;-71
2023/05/09 12:28:04;;;;;;;8.50;3.00;;;;;;;;;;5051704;28;20020;-70
2023/05/09 12:30:31;;;;;;;6.20;2.50;;;;;;;;;;5050639;28;20041;-71
2023/05/09 12:32:57;;;;;;;10.57;3.08;;;;;;;;;;5050431;28;20025;-73
2023/05/09 12:35:24;;;;;;;7.47;2.67;;;;;;;;;;5050248;28;20409;-72
2023/05/09 12:37:55;;;;;;;13.63;3.20;;;;;;;;;;5051138;28;20022;-73
2023/05/09 12:40:21;;;;;;;10.18;2.97;;;;;;;;;;5050349;28;20021;-72
2023/05/09 12:42:47;;;;;;;11.80;3.58;;;;;;;;;;5049801;28;20494;-72
2023/05/09 12:45:14;;;;;;;16.02;3.15;;;;;;;;;;5050415;28;20039;-73
2023/05/09 12:47:40;;;;;;;12.57;3.20;;;;;;;;;;5050857;28;20027;-72
2023/05/09 12:50:10;;;;;;;11.80;3.35;;;;;;;;;;5048046;28;20493;-73
2023/05/09 12:52:45;;;;;;;12.23;3.40;;;;;;;;;;5033313;28;20056;-72
2023/05/09 12:55:13;;;;;;;8.20;3.40;;;;;;;;;;5081563;28;20402;-72
2023/05/09 12:57:39;;;;;;;7.00;3.03;;;;;;;;;;5050021;28;20031;-72
2023/05/09 13:00:07;;;;;;;12.35;3.75;;;;;;;;;;5049909;28;20371;-72
2023/05/09 13:02:34;;;;;;;7.60;2.63;;;;;;;;;;5039639;28;20029;-72
2023/05/09 13:05:07;;;;;;;5.43;2.47;;;;;;;;;;5041542;28;20038;-72
2023/05/09 13:07:45;;;;;;;6.55;2.22;;;;;;;;;;5048356;28;20710;-73
2023/05/09 13:10:20;;;;;;;9.40;2.80;;;;;;;;;;5049501;28;20035;-72
2023/05/09 13:12:47;;;;;;;5.57;2.00;;;;;;;;;;5049612;28;20393;-72
2023/05/09 13:15:15;;;;;;;6.28;2.13;;;;;;;;;;5050387;28;20024;-72
2023/05/09 13:17:42;;;;;;;4.53;1.92;;;;;;;;;;5049824;28;20029;-72
2023/05/09 13:20:09;;;;;;;3.88;1.80;;;;;;;;;;5049296;28;20036;-72
2023/05/09 13:22:35;;;;;;;2.97;1.73;;;;;;;;;;5041958;28;20047;-73
2023/05/09 13:25:02;;;;;;;2.47;1.60;;;;;;;;;;5053905;28;20044;-73
2023/05/09 13:27:28;;;;;;;3.45;1.70;;;;;;;;;;5054160;28;20029;-72
2023/05/09 13:29:55;;;;;;;5.80;2.13;;;;;;;;;;5052433;28;20504;-72
2023/05/09 13:32:23;;;;;;;3.13;1.40;;;;;;;;;;5051747;28;20039;-72
2023/05/09 13:34:50;;;;;;;4.18;1.60;;;;;;;;;;5051570;28;20029;-72
2023/05/09 13:37:16;;;;;;;6.68;1.52;;;;;;;;;;5053503;28;20035;-72
2023/05/09 13:39:43;;;;;;;3.05;1.67;;;;;;;;;;5040060;28;20032;-72
2023/05/09 13:42:09;;;;;;;2.22;1.33;;;;;;;;;;5052683;28;20017;-72
2023/05/09 13:44:36;;;;;;;3.92;1.08;;;;;;;;;;5053679;28;20109;-73
2023/05/09 13:47:02;;;;;;;2.65;1.08;;;;;;;;;;5053377;28;20025;-72
2023/05/09 13:49:28;;;;;;;2.90;1.42;;;;;;;;;;5046946;28;20429;-72
2023/05/09 13:51:55;;;;;;;1.92;1.30;;;;;;;;;;5034317;28;20029;-72
2023/05/09 13:54:21;;;;;;;5.90;0.95;;;;;;;;;;5053475;28;20121;-73
2023/05/09 13:56:50;;;;;;;0.80;0.70;;;;;;;;;;5053619;28;20025;-72
2023/05/09 13:59:16;;;;;;;4.03;0.95;;;;;;;;;;5053621;28;20382;-73
2023/05/09 14:01:42;;;;;;;5.57;0.70;;;;;;;;;;5053178;28;20028;-73
2023/05/09 14:04:09;;;;;;;0.90;0.90;;;;;;;;;;5052087;28;20037;-72
2023/05/09 14:06:35;;;;;;;1.67;0.77;;;;;;;;;;5053349;28;20013;-72
2023/05/09 14:09:02;;;;;;;1.92;0.60;;;;;;;;;;5052613;28;20037;-72
2023/05/09 14:11:29;;;;;;;0.70;0.65;;;;;;;;;;5053647;28;20021;-73
2023/05/09 14:13:55;;;;;;;2.40;0.70;;;;;;;;;;5053847;28;20017;-73
2023/05/09 14:16:22;;;;;;;54.35;2.13;;;;;;;;;;5053457;28;20550;-73
2023/05/09 14:18:48;;;;;;;3.75;0.50;;;;;;;;;;5052736;28;20044;-73
2023/05/09 14:21:14;;;;;;;1.13;0.60;;;;;;;;;;5053374;28;20504;-74
2023/05/09 14:23:41;;;;;;;4.72;0.40;;;;;;;;;;5053741;28;20672;-73
2023/05/09 14:26:07;;;;;;;0.70;0.50;;;;;;;;;;5053572;28;20500;-73
2023/05/09 14:28:35;;;;;;;0.95;0.40;;;;;;;;;;5053774;28;20027;-73
2023/05/09 14:31:02;;;;;;;1.45;0.35;;;;;;;;;;5052881;28;20060;-73
2023/05/09 14:33:28;;;;;;;0.68;0.40;;;;;;;;;;5051876;28;20429;-73
2023/05/09 14:35:55;;;;;;;0.95;0.40;;;;;;;;;;5053116;28;20085;-73
2023/05/09 14:38:21;;;;;;;0.85;0.40;;;;;;;;;;5053140;28;20463;-72
2023/05/09 14:40:48;;;;;;;2.47;0.40;;;;;;;;;;5053138;28;20021;-73
2023/05/09 14:43:15;;;;;;;2.65;0.50;;;;;;;;;;5052866;28;20512;-73
2023/05/09 14:45:41;;;;;;;8.23;0.40;;;;;;;;;;5052890;28;20493;-73